Time;durP1;ratioP1;P1;durP2;ratioP2;P2;SDS_P1;SDS_P2;PMS_P1;PMS_P2;Temp;Humidity;BMP_temperature;BMP_pressure;BME280_temperature;BME280_humidity;BME280_pressure;Samples;Min_cycle;Max_cycle;Signal;HPM_P1;HPM_P2
2022/01/23 00:02:05;;;;;;;10.67;5.43;;;;;;;;;;5000780;28;20559;-79
2022/01/23 00:04:31;;;;;;;11.60;6.50;;;;;;;;;;5001702;28;20492;-82
2022/01/23 00:06:59;;;;;;;12.53;7.10;;;;;;;;;;5001590;28;20472;-80
2022/01/23 00:09:26;;;;;;;14.93;6.47;;;;;;;;;;5000391;28;20490;-83
2022/01/23 00:11:55;;;;;;;9.87;6.90;;;;;;;;;;5001524;28;20504;-82
2022/01/23 00:17:17;;;;;;;10.70;5.37;;;;;;;;;;4999812;28;20532;-81
2022/01/23 00:19:44;;;;;;;15.37;6.67;;;;;;;;;;4996981;28;20471;-81
2022/01/23 00:22:11;;;;;;;12.53;6.80;;;;;;;;;;4999672;28;20473;-83
2022/01/23 00:30:23;;;;;;;9.90;5.80;;;;;;;;;;4998420;28;21097;-82
2022/01/23 00:32:50;;;;;;;7.63;5.57;;;;;;;;;;5000411;28;20480;-83
2022/01/23 00:35:16;;;;;;;8.13;6.00;;;;;;;;;;5001458;28;20511;-82
2022/01/23 00:37:42;;;;;;;9.67;6.77;;;;;;;;;;5018510;28;20503;-81
2022/01/23 00:40:09;;;;;;;14.17;6.13;;;;;;;;;;5020752;28;20454;-82
2022/01/23 00:42:37;;;;;;;12.60;6.20;;;;;;;;;;5000983;28;20474;-80
2022/01/23 00:45:19;;;;;;;13.60;6.20;;;;;;;;;;5002031;28;20974;-80
2022/01/23 00:47:46;;;;;;;11.53;5.33;;;;;;;;;;4998791;28;20481;-81
2022/01/23 00:50:12;;;;;;;7.67;5.50;;;;;;;;;;4999610;28;20446;-80
2022/01/23 00:52:38;;;;;;;6.90;4.77;;;;;;;;;;5000229;28;20959;-81
2022/01/23 00:55:05;;;;;;;14.63;5.60;;;;;;;;;;5000829;28;21002;-80
2022/01/23 00:57:33;;;;;;;8.70;5.17;;;;;;;;;;4998305;28;20485;-81
2022/01/23 01:00:01;;;;;;;16.47;5.10;;;;;;;;;;5000495;28;20462;-81
2022/01/23 01:02:27;;;;;;;11.07;5.10;;;;;;;;;;4999515;28;20542;-82
2022/01/23 01:04:53;;;;;;;10.30;5.37;;;;;;;;;;5000594;28;20446;-80
2022/01/23 01:07:19;;;;;;;10.60;4.97;;;;;;;;;;4999259;28;20478;-81
2022/01/23 01:09:50;;;;;;;6.40;4.40;;;;;;;;;;5001082;28;20521;-80
2022/01/23 01:12:20;;;;;;;6.33;4.67;;;;;;;;;;5016556;28;20503;-80
2022/01/23 01:15:26;;;;;;;11.13;4.77;;;;;;;;;;5019907;28;20516;-80
2022/01/23 01:31:37;;;;;;;10.17;4.93;;;;;;;;;;5019338;28;21130;-81
2022/01/23 01:34:09;;;;;;;7.13;4.20;;;;;;;;;;5116744;23;20493;-79
2022/01/23 01:36:45;;;;;;;7.23;3.40;;;;;;;;;;4986152;28;20478;-79
2022/01/23 01:39:11;;;;;;;5.13;4.07;;;;;;;;;;4979678;28;21005;-79
2022/01/23 01:41:38;;;;;;;6.40;3.70;;;;;;;;;;4980845;28;20533;-79
2022/01/23 01:44:05;;;;;;;7.53;4.43;;;;;;;;;;4989715;28;20478;-79
2022/01/23 01:46:32;;;;;;;5.23;3.00;;;;;;;;;;4997268;28;20898;-79
2022/01/23 01:48:58;;;;;;;8.10;3.50;;;;;;;;;;5003921;28;20508;-80
2022/01/23 01:51:30;;;;;;;6.17;3.97;;;;;;;;;;5003257;28;20477;-79
2022/01/23 01:54:04;;;;;;;4.93;3.50;;;;;;;;;;5004148;28;20497;-79
2022/01/23 01:56:36;;;;;;;5.83;4.10;;;;;;;;;;5004811;28;20478;-79
2022/01/23 01:59:20;;;;;;;8.27;4.10;;;;;;;;;;5004427;28;20516;-80
2022/01/23 02:10:00;;;;;;;6.97;3.50;;;;;;;;;;5002731;28;20451;-79
2022/01/23 02:13:01;;;;;;;7.20;3.87;;;;;;;;;;5003813;28;20489;-78
2022/01/23 02:15:58;;;;;;;4.77;3.97;;;;;;;;;;5003994;28;20485;-79
2022/01/23 02:22:21;;;;;;;10.03;4.30;;;;;;;;;;5003601;28;20461;-79
2022/01/23 02:24:10;;;;;;;7.23;3.40;;;;;;;;;;5005154;28;20575;-79
2022/01/23 02:51:29;;;;;;;4.60;3.13;;;;;;;;;;5023978;28;20522;-79
2022/01/23 02:54:20;;;;;;;7.33;3.30;;;;;;;;;;5023019;28;20484;-79
2022/01/23 02:56:49;;;;;;;6.20;2.93;;;;;;;;;;5023092;28;20558;-79
2022/01/23 02:59:22;;;;;;;5.20;3.03;;;;;;;;;;5025506;28;20472;-79
2022/01/23 03:02:01;;;;;;;7.20;3.50;;;;;;;;;;5021659;28;20504;-79
2022/01/23 03:04:28;;;;;;;5.53;3.13;;;;;;;;;;5023430;28;20465;-78
2022/01/23 03:07:09;;;;;;;4.80;2.23;;;;;;;;;;5022173;28;20476;-79
2022/01/23 03:10:01;;;;;;;7.20;3.83;;;;;;;;;;5023453;28;20453;-79
2022/01/23 03:15:10;;;;;;;6.10;3.47;;;;;;;;;;4988199;28;20975;-79
2022/01/23 03:28:37;;;;;;;6.47;3.63;;;;;;;;;;5009719;28;20812;-79
2022/01/23 03:31:21;;;;;;;6.10;3.40;;;;;;;;;;5023265;28;20474;-79
2022/01/23 03:33:47;;;;;;;8.70;4.50;;;;;;;;;;5020574;28;20497;-79
2022/01/23 03:36:13;;;;;;;8.20;4.40;;;;;;;;;;5023123;28;20527;-78
2022/01/23 03:38:40;;;;;;;5.83;3.90;;;;;;;;;;5022562;28;20450;-78
2022/01/23 03:41:08;;;;;;;14.57;5.27;;;;;;;;;;5023136;28;20538;-78
2022/01/23 03:43:37;;;;;;;14.23;4.17;;;;;;;;;;5022968;28;20488;-79
2022/01/23 03:46:21;;;;;;;9.73;4.73;;;;;;;;;;5022407;28;20495;-79
2022/01/23 03:51:32;;;;;;;7.60;4.07;;;;;;;;;;5023010;28;20479;-80
2022/01/23 03:53:58;;;;;;;18.40;4.57;;;;;;;;;;5022317;28;20493;-79
2022/01/23 03:56:30;;;;;;;8.40;4.10;;;;;;;;;;5023180;28;20477;-79
2022/01/23 03:58:56;;;;;;;11.47;4.93;;;;;;;;;;5021572;28;20874;-79
2022/01/23 04:01:23;;;;;;;8.70;4.60;;;;;;;;;;5022932;28;20476;-79
2022/01/23 04:03:50;;;;;;;7.00;4.40;;;;;;;;;;5020843;28;20531;-79
2022/01/23 04:06:16;;;;;;;7.20;3.83;;;;;;;;;;5021102;28;20472;-79
2022/01/23 04:08:42;;;;;;;4.90;4.10;;;;;;;;;;5018446;28;20461;-77
2022/01/23 04:11:09;;;;;;;10.00;4.13;;;;;;;;;;5020464;28;21033;-79
2022/01/23 04:13:45;;;;;;;12.97;4.73;;;;;;;;;;5022956;28;20856;-79
2022/01/23 04:16:30;;;;;;;8.93;4.30;;;;;;;;;;5021971;28;20566;-79
2022/01/23 04:33:10;;;;;;;10.30;5.80;;;;;;;;;;5019019;28;20481;-79
2022/01/23 04:47:15;;;;;;;12.83;5.93;;;;;;;;;;5021184;28;20523;-79
2022/01/23 05:00:35;;;;;;;10.60;6.03;;;;;;;;;;5020611;28;20460;-79
2022/01/23 05:03:46;;;;;;;10.30;6.23;;;;;;;;;;5020741;28;20574;-79
2022/01/23 05:06:03;;;;;;;8.87;4.87;;;;;;;;;;5020302;28;20488;-79
2022/01/23 05:08:32;;;;;;;13.07;5.93;;;;;;;;;;5019744;28;20460;-79
2022/01/23 05:11:00;;;;;;;15.10;5.80;;;;;;;;;;5021530;28;20504;-79
2022/01/23 05:13:26;;;;;;;10.80;5.70;;;;;;;;;;5018574;28;20508;-79
2022/01/23 05:15:52;;;;;;;11.03;5.80;;;;;;;;;;5019772;28;20554;-79
2022/01/23 05:18:20;;;;;;;12.90;6.13;;;;;;;;;;5019649;28;20520;-79
2022/01/23 05:20:48;;;;;;;7.80;5.67;;;;;;;;;;5019505;28;20493;-79
2022/01/23 05:23:15;;;;;;;10.03;5.30;;;;;;;;;;5019864;28;20933;-79
2022/01/23 05:25:42;;;;;;;8.77;5.40;;;;;;;;;;5021164;28;21009;-79
2022/01/23 05:28:08;;;;;;;8.40;5.73;;;;;;;;;;5018386;28;20460;-78
2022/01/23 05:30:37;;;;;;;8.90;5.87;;;;;;;;;;5019665;28;20476;-79
2022/01/23 05:33:03;;;;;;;18.53;5.73;;;;;;;;;;5021545;28;20477;-79
2022/01/23 05:35:31;;;;;;;9.77;6.23;;;;;;;;;;5019236;28;20494;-79
2022/01/23 05:37:57;;;;;;;14.70;6.93;;;;;;;;;;5020055;28;20461;-79
2022/01/23 05:40:27;;;;;;;11.60;6.87;;;;;;;;;;5017844;28;20462;-79
2022/01/23 05:42:53;;;;;;;12.23;6.10;;;;;;;;;;5019689;28;20489;-78
2022/01/23 05:45:19;;;;;;;9.83;6.10;;;;;;;;;;5020261;28;20458;-79
2022/01/23 05:47:45;;;;;;;18.97;7.30;;;;;;;;;;5021462;28;20495;-79
2022/01/23 05:50:12;;;;;;;11.27;6.00;;;;;;;;;;5019825;28;20457;-78
2022/01/23 05:52:42;;;;;;;7.87;5.90;;;;;;;;;;5020540;28;20461;-79
2022/01/23 05:55:08;;;;;;;9.23;5.73;;;;;;;;;;5018421;28;20504;-79
2022/01/23 05:57:34;;;;;;;14.47;7.03;;;;;;;;;;5018558;28;20477;-79
2022/01/23 06:00:01;;;;;;;14.57;6.60;;;;;;;;;;5019463;28;20531;-79
2022/01/23 06:02:29;;;;;;;9.90;5.83;;;;;;;;;;5019799;28;20484;-79
2022/01/23 06:04:55;;;;;;;10.83;5.40;;;;;;;;;;5019685;28;20469;-79
2022/01/23 06:07:22;;;;;;;13.73;6.37;;;;;;;;;;5019207;28;20484;-80
2022/01/23 06:09:50;;;;;;;10.40;5.73;;;;;;;;;;5020663;28;20445;-79
2022/01/23 06:12:16;;;;;;;7.03;5.70;;;;;;;;;;5019686;28;20488;-79
2022/01/23 06:14:43;;;;;;;10.10;5.37;;;;;;;;;;5018703;28;20570;-78
2022/01/23 06:17:09;;;;;;;9.23;5.63;;;;;;;;;;5020042;28;20489;-79
2022/01/23 06:19:36;;;;;;;10.43;5.70;;;;;;;;;;5020816;28;20453;-79
2022/01/23 06:22:03;;;;;;;13.27;5.13;;;;;;;;;;5020715;28;20572;-79
2022/01/23 06:24:31;;;;;;;11.90;5.37;;;;;;;;;;5021254;28;20465;-79
2022/01/23 06:27:00;;;;;;;7.80;4.90;;;;;;;;;;5020435;28;20480;-79
2022/01/23 06:29:29;;;;;;;13.43;5.50;;;;;;;;;;5019108;28;20464;-76
2022/01/23 06:31:57;;;;;;;8.80;5.00;;;;;;;;;;5020842;28;21104;-79
2022/01/23 06:34:23;;;;;;;9.93;4.93;;;;;;;;;;5023554;28;20542;-79
2022/01/23 06:36:52;;;;;;;12.53;5.13;;;;;;;;;;5022632;28;20473;-79
2022/01/23 06:39:19;;;;;;;10.30;5.30;;;;;;;;;;5023237;28;20575;-79
2022/01/23 06:41:45;;;;;;;12.20;5.73;;;;;;;;;;5022731;28;20519;-77
2022/01/23 06:44:13;;;;;;;14.20;4.93;;;;;;;;;;5021970;28;20476;-78
2022/01/23 06:46:39;;;;;;;11.10;5.50;;;;;;;;;;5024102;28;20488;-79
2022/01/23 06:49:06;;;;;;;8.13;4.90;;;;;;;;;;5023301;28;20855;-79
2022/01/23 06:51:32;;;;;;;9.33;6.13;;;;;;;;;;5019983;28;20489;-79
2022/01/23 06:53:58;;;;;;;6.83;5.10;;;;;;;;;;5021926;28;20484;-79
2022/01/23 06:56:25;;;;;;;7.20;4.63;;;;;;;;;;5024071;28;20530;-79
2022/01/23 06:58:51;;;;;;;12.10;5.97;;;;;;;;;;5024323;28;20510;-79
2022/01/23 07:01:19;;;;;;;9.37;5.03;;;;;;;;;;5024237;28;20477;-80
2022/01/23 07:03:45;;;;;;;12.10;4.80;;;;;;;;;;5021937;28;20488;-79
2022/01/23 07:06:11;;;;;;;6.87;5.03;;;;;;;;;;5023637;28;20503;-78
2022/01/23 07:08:37;;;;;;;14.40;5.67;;;;;;;;;;5023349;28;20465;-79
2022/01/23 07:11:04;;;;;;;5.93;4.47;;;;;;;;;;5023794;28;22131;-79
2022/01/23 07:13:30;;;;;;;6.40;5.10;;;;;;;;;;5020961;28;20886;-79
2022/01/23 07:15:56;;;;;;;7.83;4.70;;;;;;;;;;5023545;28;20476;-79
2022/01/23 07:18:24;;;;;;;10.37;5.40;;;;;;;;;;5024036;28;20498;-80
2022/01/23 07:20:50;;;;;;;18.53;6.23;;;;;;;;;;5023247;28;20474;-80
2022/01/23 07:23:21;;;;;;;7.00;5.27;;;;;;;;;;5023652;28;20477;-79
2022/01/23 07:25:47;;;;;;;9.03;5.20;;;;;;;;;;5023022;28;20542;-78
2022/01/23 07:28:16;;;;;;;12.87;6.57;;;;;;;;;;5024429;28;20450;-79
2022/01/23 07:30:49;;;;;;;10.33;5.00;;;;;;;;;;5023073;28;21019;-80
2022/01/23 07:33:15;;;;;;;19.70;12.67;;;;;;;;;;5021988;28;20488;-79
2022/01/23 07:35:42;;;;;;;19.50;13.80;;;;;;;;;;5038942;23;20481;-82
2022/01/23 07:38:10;;;;;;;53.80;47.03;;;;;;;;;;5026868;28;20922;-82
2022/01/23 07:40:36;;;;;;;10.80;9.23;;;;;;;;;;5027806;28;20485;-83
2022/01/23 07:43:02;;;;;;;17.50;11.07;;;;;;;;;;5026062;28;20457;-83
2022/01/23 07:45:29;;;;;;;20.20;9.83;;;;;;;;;;5024945;28;20485;-84
2022/01/23 07:47:55;;;;;;;8.30;6.43;;;;;;;;;;5007871;28;20500;-83
2022/01/23 07:50:21;;;;;;;12.13;5.70;;;;;;;;;;5006847;28;20552;-84
2022/01/23 07:52:49;;;;;;;6.87;5.83;;;;;;;;;;5001707;28;20928;-83
2022/01/23 07:55:15;;;;;;;8.30;4.93;;;;;;;;;;5008255;28;20876;-84
2022/01/23 07:57:42;;;;;;;9.17;4.67;;;;;;;;;;5027513;28;20457;-83
2022/01/23 08:00:09;;;;;;;7.90;4.93;;;;;;;;;;5027203;28;20495;-83
2022/01/23 08:02:36;;;;;;;8.30;7.40;;;;;;;;;;5024489;28;21173;-83
2022/01/23 08:05:02;;;;;;;10.80;9.37;;;;;;;;;;5026597;28;20895;-83
2022/01/23 08:07:31;;;;;;;12.83;5.47;;;;;;;;;;5024665;28;20473;-83
2022/01/23 08:10:00;;;;;;;12.40;4.80;;;;;;;;;;5025815;28;20514;-83
2022/01/23 08:12:26;;;;;;;7.60;5.00;;;;;;;;;;5024245;28;20477;-83
2022/01/23 08:14:52;;;;;;;9.57;5.17;;;;;;;;;;5027396;28;20515;-83
2022/01/23 08:17:19;;;;;;;16.13;13.70;;;;;;;;;;5021382;28;20484;-83
2022/01/23 08:19:45;;;;;;;14.90;11.40;;;;;;;;;;5025702;28;20507;-82
2022/01/23 08:22:11;;;;;;;10.40;5.43;;;;;;;;;;5023906;28;20503;-83
2022/01/23 08:24:38;;;;;;;9.80;5.90;;;;;;;;;;5025647;28;20452;-83
2022/01/23 08:27:06;;;;;;;9.77;5.60;;;;;;;;;;5025609;28;20536;-83
2022/01/23 08:29:32;;;;;;;7.70;4.77;;;;;;;;;;5024933;28;20457;-83
2022/01/23 08:31:58;;;;;;;11.07;5.00;;;;;;;;;;5026280;28;20480;-82
2022/01/23 08:34:24;;;;;;;9.50;5.43;;;;;;;;;;5022927;28;20453;-83
2022/01/23 08:36:54;;;;;;;7.13;4.50;;;;;;;;;;5023934;28;20480;-83
2022/01/23 08:39:22;;;;;;;13.00;7.33;;;;;;;;;;5024334;28;20857;-84
2022/01/23 08:41:51;;;;;;;10.57;6.80;;;;;;;;;;5026051;28;20836;-82
2022/01/23 08:44:19;;;;;;;8.60;5.93;;;;;;;;;;5026529;28;20532;-83
2022/01/23 08:46:45;;;;;;;16.90;7.70;;;;;;;;;;5027808;28;20856;-82
2022/01/23 08:49:12;;;;;;;8.03;5.47;;;;;;;;;;5030320;28;20499;-83
2022/01/23 08:51:38;;;;;;;11.97;5.67;;;;;;;;;;5028934;28;20503;-83
2022/01/23 08:54:04;;;;;;;9.40;4.70;;;;;;;;;;5028791;28;20507;-82
2022/01/23 08:56:31;;;;;;;10.53;8.40;;;;;;;;;;5024480;28;20473;-82
2022/01/23 08:58:57;;;;;;;8.10;6.60;;;;;;;;;;5029118;28;20445;-83
2022/01/23 09:01:25;;;;;;;8.03;4.93;;;;;;;;;;5029564;28;20478;-83
2022/01/23 09:03:51;;;;;;;9.53;5.60;;;;;;;;;;5028352;28;20445;-81
2022/01/23 09:06:18;;;;;;;8.00;5.20;;;;;;;;;;5028728;28;20481;-82
2022/01/23 09:08:45;;;;;;;10.57;5.23;;;;;;;;;;5026488;28;20446;-82
2022/01/23 09:11:24;;;;;;;11.00;6.33;;;;;;;;;;5028744;28;20492;-81
2022/01/23 09:14:06;;;;;;;25.77;22.97;;;;;;;;;;5028748;28;20447;-82
2022/01/23 09:16:34;;;;;;;12.63;6.00;;;;;;;;;;5026562;28;20480;-82
2022/01/23 09:19:00;;;;;;;7.40;6.70;;;;;;;;;;5028518;28;20797;-82
2022/01/23 09:21:26;;;;;;;28.07;15.73;;;;;;;;;;5027090;28;20464;-82
2022/01/23 09:23:52;;;;;;;16.87;9.90;;;;;;;;;;5030396;28;20441;-81
2022/01/23 09:26:21;;;;;;;79.17;39.83;;;;;;;;;;5027430;28;20477;-82
2022/01/23 09:28:48;;;;;;;31.33;15.37;;;;;;;;;;5028625;28;20461;-81
2022/01/23 09:31:25;;;;;;;34.77;14.70;;;;;;;;;;5027504;28;20547;-81
2022/01/23 09:33:52;;;;;;;136.10;64.90;;;;;;;;;;5028384;28;21426;-82
2022/01/23 09:36:19;;;;;;;20.87;11.50;;;;;;;;;;5026833;28;20836;-82
2022/01/23 09:38:45;;;;;;;51.60;33.47;;;;;;;;;;5026722;28;20527;-82
2022/01/23 09:41:11;;;;;;;23.27;14.83;;;;;;;;;;5028384;28;20550;-82
2022/01/23 09:43:39;;;;;;;6.30;4.47;;;;;;;;;;5029735;28;20449;-83
2022/01/23 09:46:07;;;;;;;15.23;9.77;;;;;;;;;;5028501;28;21006;-82
2022/01/23 09:48:34;;;;;;;6.63;4.33;;;;;;;;;;5025284;28;20465;-82
2022/01/23 09:51:02;;;;;;;15.27;11.47;;;;;;;;;;5026314;28;20468;-82
2022/01/23 09:53:29;;;;;;;14.27;9.67;;;;;;;;;;5028321;28;20494;-82
2022/01/23 09:56:02;;;;;;;10.03;4.80;;;;;;;;;;5028903;28;20481;-82
2022/01/23 09:58:28;;;;;;;5.50;4.50;;;;;;;;;;5028212;28;20476;-82
2022/01/23 10:00:55;;;;;;;8.57;6.20;;;;;;;;;;5027651;28;20458;-82
2022/01/23 10:03:21;;;;;;;7.60;5.00;;;;;;;;;;5030407;28;20959;-81
2022/01/23 10:05:49;;;;;;;6.70;3.80;;;;;;;;;;5031807;28;20464;-82
2022/01/23 10:08:18;;;;;;;8.50;5.27;;;;;;;;;;5032747;28;20464;-82
2022/01/23 10:10:50;;;;;;;8.50;4.70;;;;;;;;;;5032507;28;20488;-82
2022/01/23 10:13:17;;;;;;;4.50;4.07;;;;;;;;;;5033349;28;20540;-82
2022/01/23 10:15:43;;;;;;;6.80;5.23;;;;;;;;;;5030575;28;20488;-82
2022/01/23 10:18:09;;;;;;;10.10;5.13;;;;;;;;;;5034449;28;20456;-82
2022/01/23 10:20:36;;;;;;;12.20;6.90;;;;;;;;;;5034232;28;20518;-81
2022/01/23 10:23:02;;;;;;;10.10;4.83;;;;;;;;;;5032181;28;20890;-82
2022/01/23 10:25:30;;;;;;;4.90;4.13;;;;;;;;;;5030047;28;20484;-82
2022/01/23 10:28:01;;;;;;;10.37;4.20;;;;;;;;;;5033119;28;20508;-82
2022/01/23 10:30:29;;;;;;;5.10;4.17;;;;;;;;;;5034137;28;20456;-82
2022/01/23 10:33:04;;;;;;;8.13;4.50;;;;;;;;;;5032596;28;20470;-82
2022/01/23 10:35:30;;;;;;;8.83;3.47;;;;;;;;;;5033324;28;20523;-82
2022/01/23 10:37:56;;;;;;;6.80;3.80;;;;;;;;;;5032815;28;20530;-82
2022/01/23 10:40:26;;;;;;;6.97;4.03;;;;;;;;;;5032901;28;20459;-82
2022/01/23 10:46:39;;;;;;;5.83;3.63;;;;;;;;;;5032851;28;20847;-82
2022/01/23 10:48:37;;;;;;;9.30;6.87;;;;;;;;;;5034236;28;20488;-82
2022/01/23 10:51:20;;;;;;;16.17;9.87;;;;;;;;;;5033177;28;20464;-82
2022/01/23 10:54:05;;;;;;;14.53;9.20;;;;;;;;;;5034200;28;20444;-82
2022/01/23 10:56:32;;;;;;;14.27;9.30;;;;;;;;;;5034378;28;21011;-82
2022/01/23 10:59:01;;;;;;;9.10;6.10;;;;;;;;;;5032994;28;20464;-82
2022/01/23 11:01:28;;;;;;;23.73;17.40;;;;;;;;;;5034962;28;20547;-82
2022/01/23 11:04:08;;;;;;;9.93;6.20;;;;;;;;;;5034643;28;20453;-82
2022/01/23 11:06:50;;;;;;;17.30;10.10;;;;;;;;;;5032735;28;20495;-83
2022/01/23 11:09:16;;;;;;;5.83;4.97;;;;;;;;;;5031897;28;20468;-82
2022/01/23 11:11:45;;;;;;;7.33;5.30;;;;;;;;;;5030663;28;20475;-81
2022/01/23 11:19:46;;;;;;;11.53;6.30;;;;;;;;;;5033010;28;20475;-81
2022/01/23 11:22:16;;;;;;;11.23;7.27;;;;;;;;;;5032061;28;20531;-82
2022/01/23 11:24:45;;;;;;;6.47;5.20;;;;;;;;;;5033269;28;20559;-82
2022/01/23 11:27:12;;;;;;;4.40;4.00;;;;;;;;;;5031568;28;20476;-83
2022/01/23 11:29:52;;;;;;;10.87;5.10;;;;;;;;;;5029945;28;20804;-82
2022/01/23 11:32:18;;;;;;;18.03;12.20;;;;;;;;;;5031870;28;20913;-82
2022/01/23 11:34:45;;;;;;;6.43;4.43;;;;;;;;;;5029766;28;20520;-82
2022/01/23 11:37:12;;;;;;;10.20;4.00;;;;;;;;;;5027070;28;21010;-82
2022/01/23 11:39:43;;;;;;;5.23;4.03;;;;;;;;;;5029675;28;21079;-81
2022/01/23 11:53:50;;;;;;;7.93;5.00;;;;;;;;;;4971071;28;20987;-82
2022/01/23 11:56:38;;;;;;;6.73;3.70;;;;;;;;;;5010087;28;20502;-82
2022/01/23 11:59:17;;;;;;;7.60;4.33;;;;;;;;;;5007677;28;20450;-82
2022/01/23 12:01:46;;;;;;;6.87;4.50;;;;;;;;;;5011042;28;20470;-82
2022/01/23 12:04:18;;;;;;;8.30;3.80;;;;;;;;;;5008545;28;21005;-82
2022/01/23 12:06:45;;;;;;;6.77;4.10;;;;;;;;;;5010682;28;20864;-82
2022/01/23 12:09:18;;;;;;;5.70;3.73;;;;;;;;;;5010334;28;20458;-80
2022/01/23 12:12:02;;;;;;;10.30;4.10;;;;;;;;;;5009885;28;20478;-82
2022/01/23 12:23:10;;;;;;;6.63;4.70;;;;;;;;;;5082527;27;20525;-79
2022/01/23 12:25:40;;;;;;;6.93;4.30;;;;;;;;;;5077540;28;20544;-79
2022/01/23 12:28:14;;;;;;;7.43;5.80;;;;;;;;;;5058430;28;20502;-79
2022/01/23 12:30:42;;;;;;;5.70;3.67;;;;;;;;;;5060844;28;20512;-79
2022/01/23 12:33:13;;;;;;;8.50;4.90;;;;;;;;;;5059124;28;20471;-79
2022/01/23 12:35:40;;;;;;;16.97;11.07;;;;;;;;;;5062626;28;20486;-79
2022/01/23 12:38:08;;;;;;;6.87;4.97;;;;;;;;;;5061022;28;20559;-78
2022/01/23 12:40:40;;;;;;;7.30;5.77;;;;;;;;;;5060929;28;20452;-78
2022/01/23 12:43:08;;;;;;;8.13;6.50;;;;;;;;;;5063837;28;20463;-78
2022/01/23 12:45:44;;;;;;;6.33;3.87;;;;;;;;;;5063721;28;20579;-78
2022/01/23 12:48:25;;;;;;;12.80;6.10;;;;;;;;;;5039764;28;20464;-80
2022/01/23 12:50:53;;;;;;;6.90;5.73;;;;;;;;;;5029844;28;20448;-79
2022/01/23 12:53:19;;;;;;;7.13;5.57;;;;;;;;;;5039565;28;20460;-79
2022/01/23 12:58:40;;;;;;;7.80;6.10;;;;;;;;;;5101649;27;20605;-82
2022/01/23 13:01:08;;;;;;;19.37;16.57;;;;;;;;;;5096425;28;20981;-81
2022/01/23 13:03:36;;;;;;;7.50;5.00;;;;;;;;;;5065820;28;20448;-81
2022/01/23 13:06:06;;;;;;;10.53;5.90;;;;;;;;;;5074429;28;20458;-81
2022/01/23 13:08:36;;;;;;;8.43;5.80;;;;;;;;;;5084730;28;20481;-81
2022/01/23 13:11:44;;;;;;;5.93;4.60;;;;;;;;;;5083820;28;20533;-81
2022/01/23 13:14:08;;;;;;;7.10;6.37;;;;;;;;;;5084670;28;20434;-81
2022/01/23 13:16:39;;;;;;;7.67;5.37;;;;;;;;;;5084243;28;20533;-81
2022/01/23 13:19:33;;;;;;;6.73;4.63;;;;;;;;;;5085751;28;20439;-81
2022/01/23 13:30:19;;;;;;;9.03;4.47;;;;;;;;;;5074865;28;20476;-81
2022/01/23 13:32:47;;;;;;;8.37;5.80;;;;;;;;;;5084408;28;20497;-80
2022/01/23 13:35:16;;;;;;;10.23;7.00;;;;;;;;;;5084267;28;20503;-81
2022/01/23 13:40:13;;;;;;;10.87;7.93;;;;;;;;;;5002342;28;20497;-82
2022/01/23 13:48:18;;;;;;;13.57;9.03;;;;;;;;;;5005322;28;20614;-81
2022/01/23 13:59:20;;;;;;;6.00;4.23;;;;;;;;;;5004503;28;20442;-80
2022/01/23 14:01:52;;;;;;;7.27;4.77;;;;;;;;;;5005506;28;20480;-82
2022/01/23 14:04:19;;;;;;;5.40;4.33;;;;;;;;;;5007081;28;20996;-81
2022/01/23 14:06:46;;;;;;;5.27;3.70;;;;;;;;;;5005108;28;20482;-81
2022/01/23 14:09:13;;;;;;;4.80;3.37;;;;;;;;;;4996164;28;20506;-81
2022/01/23 14:11:39;;;;;;;5.43;4.33;;;;;;;;;;4991557;28;20482;-81
2022/01/23 14:14:12;;;;;;;5.90;4.37;;;;;;;;;;4993238;28;20454;-81
2022/01/23 14:16:38;;;;;;;5.80;4.20;;;;;;;;;;4989897;28;20479;-81
2022/01/23 14:19:19;;;;;;;3.90;3.50;;;;;;;;;;4993505;28;20471;-81
2022/01/23 14:21:47;;;;;;;9.83;4.03;;;;;;;;;;4990751;28;20487;-82
2022/01/23 14:24:20;;;;;;;4.23;3.30;;;;;;;;;;4992970;28;20485;-81
2022/01/23 14:26:55;;;;;;;5.27;4.40;;;;;;;;;;4991676;28;20474;-82
2022/01/23 14:29:22;;;;;;;3.80;3.13;;;;;;;;;;4992232;28;20471;-81
2022/01/23 14:32:03;;;;;;;3.97;2.80;;;;;;;;;;4992945;28;20479;-81
2022/01/23 14:34:30;;;;;;;3.30;2.93;;;;;;;;;;4987523;28;20476;-82
2022/01/23 14:36:58;;;;;;;3.20;3.00;;;;;;;;;;4993478;28;20502;-82
2022/01/23 14:39:25;;;;;;;5.70;3.80;;;;;;;;;;4993136;28;21053;-82
2022/01/23 14:41:51;;;;;;;3.50;2.70;;;;;;;;;;4993780;28;20470;-82
2022/01/23 14:44:20;;;;;;;3.50;3.20;;;;;;;;;;4993508;28;20504;-81
2022/01/23 14:46:46;;;;;;;6.00;3.10;;;;;;;;;;4993359;28;20903;-81
2022/01/23 14:49:21;;;;;;;2.50;2.10;;;;;;;;;;4991125;28;20540;-82
2022/01/23 14:51:49;;;;;;;4.00;3.23;;;;;;;;;;4992550;28;20537;-83
2022/01/23 14:54:16;;;;;;;3.50;3.20;;;;;;;;;;4988284;28;20466;-83
2022/01/23 14:56:43;;;;;;;3.70;2.80;;;;;;;;;;4991997;28;20482;-81
2022/01/23 14:59:10;;;;;;;4.10;2.87;;;;;;;;;;4993000;28;20466;-82
2022/01/23 15:01:36;;;;;;;2.03;1.90;;;;;;;;;;4995113;28;20486;-83
2022/01/23 15:04:05;;;;;;;4.23;2.87;;;;;;;;;;4991026;28;20462;-82
2022/01/23 15:06:31;;;;;;;6.23;4.10;;;;;;;;;;4992664;28;20479;-82
2022/01/23 15:09:03;;;;;;;3.00;2.63;;;;;;;;;;4993963;28;20475;-81
2022/01/23 15:11:30;;;;;;;3.97;2.90;;;;;;;;;;4991986;28;20529;-83
2022/01/23 15:13:56;;;;;;;6.50;3.00;;;;;;;;;;4993749;28;20455;-82
2022/01/23 15:16:22;;;;;;;4.90;2.70;;;;;;;;;;4994453;28;20471;-81
2022/01/23 15:18:48;;;;;;;2.33;2.13;;;;;;;;;;4991540;28;20494;-82
2022/01/23 15:21:15;;;;;;;4.27;2.87;;;;;;;;;;4992273;28;20529;-82
2022/01/23 15:23:41;;;;;;;5.40;3.13;;;;;;;;;;4993850;28;20901;-82
2022/01/23 15:26:09;;;;;;;3.80;2.43;;;;;;;;;;4994369;28;20471;-82
2022/01/23 15:28:35;;;;;;;4.47;2.97;;;;;;;;;;4993524;28;20467;-82
2022/01/23 15:31:02;;;;;;;4.90;3.00;;;;;;;;;;4992409;28;20465;-81
2022/01/23 15:33:28;;;;;;;6.20;3.93;;;;;;;;;;4993242;28;20517;-82
2022/01/23 15:35:55;;;;;;;5.63;3.63;;;;;;;;;;4993883;28;20462;-83
2022/01/23 15:38:21;;;;;;;5.33;3.47;;;;;;;;;;4992687;28;20566;-81
2022/01/23 15:40:48;;;;;;;4.30;3.40;;;;;;;;;;4992394;28;20506;-81
2022/01/23 15:43:15;;;;;;;4.83;3.73;;;;;;;;;;4993731;28;20451;-82
2022/01/23 15:45:42;;;;;;;5.70;3.53;;;;;;;;;;4994616;28;20455;-81
2022/01/23 15:48:08;;;;;;;5.80;3.30;;;;;;;;;;4993738;28;20582;-82
2022/01/23 15:50:35;;;;;;;5.23;3.10;;;;;;;;;;4992243;28;20462;-82
2022/01/23 15:53:02;;;;;;;2.40;2.20;;;;;;;;;;4993845;28;20474;-81
2022/01/23 15:55:29;;;;;;;2.57;2.37;;;;;;;;;;4993336;28;20461;-82
2022/01/23 15:57:55;;;;;;;4.23;2.90;;;;;;;;;;4992860;28;20503;-81
2022/01/23 16:00:23;;;;;;;3.57;3.20;;;;;;;;;;4991890;28;20446;-82
2022/01/23 16:02:50;;;;;;;5.13;4.70;;;;;;;;;;4992276;28;20499;-82
2022/01/23 16:05:16;;;;;;;4.93;3.70;;;;;;;;;;4993935;28;20446;-82
2022/01/23 16:07:42;;;;;;;3.47;3.17;;;;;;;;;;4992014;28;20475;-81
2022/01/23 16:10:09;;;;;;;3.33;3.03;;;;;;;;;;4994923;28;20458;-82
2022/01/23 16:12:37;;;;;;;3.83;3.50;;;;;;;;;;4991943;28;20485;-81
2022/01/23 16:15:04;;;;;;;8.63;5.20;;;;;;;;;;4992756;28;20444;-82
2022/01/23 16:17:31;;;;;;;4.93;4.43;;;;;;;;;;4991490;28;20537;-81
2022/01/23 16:20:00;;;;;;;3.90;3.60;;;;;;;;;;4992100;28;20454;-81
2022/01/23 16:22:26;;;;;;;4.97;4.53;;;;;;;;;;4992198;28;20471;-82
2022/01/23 16:24:53;;;;;;;3.63;3.33;;;;;;;;;;4993130;28;20473;-82
2022/01/23 16:27:19;;;;;;;4.17;3.50;;;;;;;;;;4994124;28;20500;-82
2022/01/23 16:29:45;;;;;;;4.97;3.97;;;;;;;;;;4993908;28;20566;-82
2022/01/23 16:32:12;;;;;;;6.23;3.90;;;;;;;;;;4993876;28;20475;-81
2022/01/23 16:34:39;;;;;;;7.23;4.83;;;;;;;;;;4992687;28;20470;-81
2022/01/23 16:37:05;;;;;;;8.30;4.97;;;;;;;;;;4994015;28;20482;-82
2022/01/23 16:39:32;;;;;;;5.70;4.60;;;;;;;;;;4993355;28;20518;-82
2022/01/23 16:41:58;;;;;;;6.10;4.83;;;;;;;;;;4992533;28;20510;-82
2022/01/23 16:44:26;;;;;;;5.23;4.57;;;;;;;;;;4994808;28;20451;-82
2022/01/23 16:46:52;;;;;;;6.10;5.23;;;;;;;;;;4993214;28;20479;-82
2022/01/23 16:49:18;;;;;;;5.37;4.67;;;;;;;;;;4991913;28;20493;-83
2022/01/23 16:51:46;;;;;;;7.40;5.60;;;;;;;;;;4993926;28;20498;-82
2022/01/23 16:54:13;;;;;;;6.13;5.40;;;;;;;;;;4994106;28;21076;-82
2022/01/23 16:56:40;;;;;;;10.83;5.73;;;;;;;;;;4990692;28;20473;-81
2022/01/23 16:59:07;;;;;;;7.43;5.97;;;;;;;;;;4988143;28;20494;-81
2022/01/23 17:01:33;;;;;;;6.13;5.13;;;;;;;;;;4989562;28;20478;-81
2022/01/23 17:04:00;;;;;;;5.20;4.60;;;;;;;;;;4988131;28;20463;-81
2022/01/23 17:06:28;;;;;;;6.90;5.03;;;;;;;;;;4987357;28;20539;-81
2022/01/23 17:08:56;;;;;;;7.60;5.33;;;;;;;;;;4988634;28;20475;-82
2022/01/23 17:11:22;;;;;;;7.00;4.90;;;;;;;;;;4987030;28;20468;-81
2022/01/23 17:13:49;;;;;;;5.20;4.70;;;;;;;;;;4989011;28;20477;-82
2022/01/23 17:16:16;;;;;;;6.80;5.77;;;;;;;;;;4988929;28;20518;-82
2022/01/23 17:18:43;;;;;;;18.97;16.97;;;;;;;;;;4989952;28;20490;-80
2022/01/23 17:21:09;;;;;;;6.07;5.47;;;;;;;;;;4987412;28;20478;-81
2022/01/23 17:23:35;;;;;;;8.43;5.20;;;;;;;;;;4984671;28;20504;-82
2022/01/23 17:26:03;;;;;;;7.00;5.30;;;;;;;;;;4987418;28;20459;-81
2022/01/23 17:28:29;;;;;;;8.07;7.37;;;;;;;;;;4988511;28;20475;-81
2022/01/23 17:30:56;;;;;;;5.97;5.40;;;;;;;;;;4988353;28;22362;-81
2022/01/23 17:33:22;;;;;;;17.30;14.60;;;;;;;;;;4988209;28;21011;-81
2022/01/23 17:35:49;;;;;;;13.90;10.80;;;;;;;;;;4988914;28;20456;-81
2022/01/23 17:38:15;;;;;;;12.90;9.10;;;;;;;;;;4987610;28;20872;-81